Time;durP1;ratioP1;P1;durP2;ratioP2;P2;SDS_P1;SDS_P2;PMS_P1;PMS_P2;Temp;Humidity;BMP_temperature;BMP_pressure;BME280_temperature;BME280_humidity;BME280_pressure;Samples;Min_cycle;Max_cycle;Signal;HPM_P1;HPM_P2
2023/02/09 00:00:26;;;;;;;;;;;;;;;;;;8406141;28;27868;-81
2023/02/09 00:04:26;;;;;;;;;;;;;;;;;;8404397;28;27555;-81
2023/02/09 00:08:26;;;;;;;;;;;;;;;;;;8387831;28;29553;-82
2023/02/09 00:16:44;;;;;;;;;;;;;;;;;;8396235;28;27159;-81
2023/02/09 00:20:45;;;;;;;;;;;;;;;;;;8400285;28;27237;-78
2023/02/09 00:24:45;;;;;;;;;;;;;;;;;;8402719;28;27299;-80
2023/02/09 00:28:45;;;;;;;;;;;;;;;;;;8391956;28;28863;-81
2023/02/09 00:32:45;;;;;;;;;;;;;;;;;;8402044;28;27371;-81
2023/02/09 00:36:45;;;;;;;;;;;;;;;;;;8385402;28;28630;-81
2023/02/09 00:40:45;;;;;;;;;;;;;;;;;;8386678;28;28810;-81
2023/02/09 00:44:45;;;;;;;;;;;;;;;;;;8390782;28;28481;-81
2023/02/09 00:48:45;;;;;;;;;;;;;;;;;;8384472;28;29579;-81
2023/02/09 00:52:45;;;;;;;;;;;;;;;;;;8390314;28;28509;-82
2023/02/09 00:56:45;;;;;;;;;;;;;;;;;;8392145;28;28818;-84
2023/02/09 01:00:45;;;;;;;;;;;;;;;;;;8408293;28;27131;-84
2023/02/09 01:04:45;;;;;;;;;;;;;;;;;;8387065;28;28546;-81
2023/02/09 01:08:46;;;;;;;;;;;;;;;;;;8409229;27;28302;-81
2023/02/09 01:12:46;;;;;;;;;;;;;;;;;;8381758;28;28742;-80
2023/02/09 01:16:46;;;;;;;;;;;;;;;;;;8411570;28;27394;-81
2023/02/09 01:20:46;;;;;;;;;;;;;;;;;;8404484;28;27193;-80
2023/02/09 01:24:46;;;;;;;;;;;;;;;;;;8404275;28;27309;-81
2023/02/09 01:28:46;;;;;;;;;;;;;;;;;;8387636;28;29649;-80
2023/02/09 01:32:46;;;;;;;;;;;;;;;;;;8400245;28;27183;-81
2023/02/09 01:36:47;;;;;;;;;;;;;;;;;;8406754;28;27479;-78
2023/02/09 01:40:47;;;;;;;;;;;;;;;;;;8406238;28;27569;-80
2023/02/09 01:44:47;;;;;;;;;;;;;;;;;;8400873;28;27396;-80
2023/02/09 01:48:47;;;;;;;;;;;;;;;;;;8386710;28;29957;-80
2023/02/09 01:52:47;;;;;;;;;;;;;;;;;;8404285;28;27126;-81
2023/02/09 01:56:47;;;;;;;;;;;;;;;;;;8406424;28;27293;-80
2023/02/09 02:00:47;;;;;;;;;;;;;;;;;;8383040;28;28902;-81
2023/02/09 02:04:47;;;;;;;;;;;;;;;;;;8403793;28;27430;-81
2023/02/09 02:08:48;;;;;;;;;;;;;;;;;;8385728;28;29866;-81
2023/02/09 02:12:48;;;;;;;;;;;;;;;;;;8381477;28;28860;-80
2023/02/09 02:16:48;;;;;;;;;;;;;;;;;;8383877;28;28808;-82
2023/02/09 02:20:48;;;;;;;;;;;;;;;;;;8403385;27;27269;-82
2023/02/09 02:24:48;;;;;;;;;;;;;;;;;;8384353;28;28921;-81
2023/02/09 02:28:48;;;;;;;;;;;;;;;;;;8387707;28;28803;-83
2023/02/09 02:32:48;;;;;;;;;;;;;;;;;;8385301;28;29680;-85
2023/02/09 02:36:48;;;;;;;;;;;;;;;;;;8411217;28;27436;-82
2023/02/09 02:40:48;;;;;;;;;;;;;;;;;;8388351;28;28467;-82
2023/02/09 02:44:48;;;;;;;;;;;;;;;;;;8407936;28;27258;-83
2023/02/09 02:48:48;;;;;;;;;;;;;;;;;;8405954;28;27373;-83
2023/02/09 02:52:48;;;;;;;;;;;;;;;;;;8389471;28;29770;-84
2023/02/09 02:56:48;;;;;;;;;;;;;;;;;;8388729;28;28166;-81
2023/02/09 03:00:48;;;;;;;;;;;;;;;;;;8397246;28;30160;-81
2023/02/09 03:04:49;;;;;;;;;;;;;;;;;;8384113;28;28707;-81
2023/02/09 03:08:49;;;;;;;;;;;;;;;;;;8395834;28;28569;-81
2023/02/09 03:12:49;;;;;;;;;;;;;;;;;;8389850;28;28873;-81
2023/02/09 03:16:49;;;;;;;;;;;;;;;;;;8389283;28;29101;-80
2023/02/09 03:20:49;;;;;;;;;;;;;;;;;;8398446;28;29977;-80
2023/02/09 03:24:49;;;;;;;;;;;;;;;;;;8410708;27;27266;-82
2023/02/09 03:28:49;;;;;;;;;;;;;;;;;;8411957;28;27107;-83
2023/02/09 03:32:49;;;;;;;;;;;;;;;;;;8391653;28;28617;-83
2023/02/09 03:36:49;;;;;;;;;;;;;;;;;;8415028;28;27359;-85
2023/02/09 03:40:49;;;;;;;;;;;;;;;;;;8402463;28;27417;-83
2023/02/09 03:44:49;;;;;;;;;;;;;;;;;;8407097;28;27527;-82
2023/02/09 03:48:50;;;;;;;;;;;;;;;;;;8394384;28;29733;-80
2023/02/09 03:52:50;;;;;;;;;;;;;;;;;;8402811;28;27156;-80
2023/02/09 03:56:50;;;;;;;;;;;;;;;;;;8405378;27;27471;-81
2023/02/09 04:00:50;;;;;;;;;;;;;;;;;;8404084;28;27458;-81
2023/02/09 04:04:52;;;;;;;;;;;;;;;;;;8385266;28;28527;-82
2023/02/09 04:08:52;;;;;;;;;;;;;;;;;;8406525;28;28331;-82
2023/02/09 04:12:52;;;;;;;;;;;;;;;;;;8394725;28;28749;-82
2023/02/09 04:16:52;;;;;;;;;;;;;;;;;;8388335;28;28465;-81
2023/02/09 04:20:52;;;;;;;;;;;;;;;;;;8405159;28;27439;-81
2023/02/09 04:24:52;;;;;;;;;;;;;;;;;;8407180;28;28131;-82
2023/02/09 04:28:52;;;;;;;;;;;;;;;;;;8386410;28;28571;-85
2023/02/09 04:32:52;;;;;;;;;;;;;;;;;;8403770;28;27411;-81
2023/02/09 04:36:53;;;;;;;;;;;;;;;;;;8388293;28;28839;-84
2023/02/09 04:40:53;;;;;;;;;;;;;;;;;;8409849;28;27268;-83
2023/02/09 04:44:53;;;;;;;;;;;;;;;;;;8408183;28;27474;-83
2023/02/09 04:48:53;;;;;;;;;;;;;;;;;;8385005;28;28510;-81
2023/02/09 04:52:53;;;;;;;;;;;;;;;;;;8395994;28;27133;-80
2023/02/09 04:59:33;;;;;;;;;;;;;;;;;;8411464;28;28026;-80
2023/02/09 05:01:13;;;;;;;;;;;;;;;;;;8394205;28;27305;-81
2023/02/09 05:05:13;;;;;;;;;;;;;;;;;;8407907;28;27302;-80
2023/02/09 05:09:13;;;;;;;;;;;;;;;;;;8395458;28;27248;-80
2023/02/09 05:13:13;;;;;;;;;;;;;;;;;;8402256;28;28018;-81
2023/02/09 05:17:13;;;;;;;;;;;;;;;;;;8402270;28;27142;-83
2023/02/09 05:21:14;;;;;;;;;;;;;;;;;;8399624;28;27498;-80
2023/02/09 05:25:14;;;;;;;;;;;;;;;;;;8378714;28;28858;-82
2023/02/09 05:29:14;;;;;;;;;;;;;;;;;;8391922;28;28996;-82
2023/02/09 05:33:14;;;;;;;;;;;;;;;;;;8390865;28;28598;-83
2023/02/09 05:37:14;;;;;;;;;;;;;;;;;;8404551;28;28450;-83
2023/02/09 05:42:13;;;;;;;;;;;;;;;;;;8383872;28;29896;-82
2023/02/09 05:45:34;;;;;;;;;;;;;;;;;;8407695;28;28248;-82
2023/02/09 05:49:34;;;;;;;;;;;;;;;;;;8402144;28;27581;-82
2023/02/09 05:53:34;;;;;;;;;;;;;;;;;;8407843;28;27271;-84
2023/02/09 05:57:34;;;;;;;;;;;;;;;;;;8384139;28;28845;-81
2023/02/09 06:01:34;;;;;;;;;;;;;;;;;;8380798;28;28574;-82
2023/02/09 06:05:34;;;;;;;;;;;;;;;;;;8399155;28;27252;-83
2023/02/09 06:09:34;;;;;;;;;;;;;;;;;;8407977;28;28089;-81
2023/02/09 06:13:35;;;;;;;;;;;;;;;;;;8406622;28;28091;-80
2023/02/09 06:17:35;;;;;;;;;;;;;;;;;;8407933;28;27079;-83
2023/02/09 06:21:35;;;;;;;;;;;;;;;;;;8418558;28;27948;-83
2023/02/09 06:25:35;;;;;;;;;;;;;;;;;;8400777;28;28553;-81
2023/02/09 06:29:35;;;;;;;;;;;;;;;;;;8391503;28;28454;-82
2023/02/09 06:33:35;;;;;;;;;;;;;;;;;;8407279;28;27334;-82
2023/02/09 06:37:35;;;;;;;;;;;;;;;;;;8412653;28;28666;-83
2023/02/09 06:41:35;;;;;;;;;;;;;;;;;;8402438;27;28511;-82
2023/02/09 06:45:35;;;;;;;;;;;;;;;;;;8414794;28;27209;-81
2023/02/09 06:49:35;;;;;;;;;;;;;;;;;;8404716;28;29974;-83
2023/02/09 06:53:35;;;;;;;;;;;;;;;;;;8396239;28;28406;-83
2023/02/09 06:57:36;;;;;;;;;;;;;;;;;;8405300;28;27419;-82
2023/02/09 07:01:36;;;;;;;;;;;;;;;;;;8393422;28;28543;-82
2023/02/09 07:05:36;;;;;;;;;;;;;;;;;;8391071;28;28562;-81
2023/02/09 07:09:36;;;;;;;;;;;;;;;;;;8392520;28;28453;-83
2023/02/09 07:13:36;;;;;;;;;;;;;;;;;;8388026;28;28962;-84
2023/02/09 07:17:36;;;;;;;;;;;;;;;;;;8394633;28;28696;-84
2023/02/09 07:21:36;;;;;;;;;;;;;;;;;;8406007;28;27308;-82
2023/02/09 07:25:36;;;;;;;;;;;;;;;;;;8382066;28;28484;-81
2023/02/09 07:29:37;;;;;;;;;;;;;;;;;;8398319;28;29596;-81
2023/02/09 07:33:37;;;;;;;;;;;;;;;;;;8414090;28;27143;-82
2023/02/09 07:37:37;;;;;;;;;;;;;;;;;;8408115;28;28240;-81
2023/02/09 07:41:37;;;;;;;;;;;;;;;;;;8413217;28;27301;-82
2023/02/09 07:45:37;;;;;;;;;;;;;;;;;;8412496;28;27158;-82
2023/02/09 07:49:37;;;;;;;;;;;;;;;;;;8417651;28;27587;-82
2023/02/09 07:53:37;;;;;;;;;;;;;;;;;;8381747;28;28777;-83
2023/02/09 07:57:37;;;;;;;;;;;;;;;;;;8388845;28;28410;-83
2023/02/09 08:01:37;;;;;;;;;;;;;;;;;;8399825;28;28204;-81
2023/02/09 08:05:37;;;;;;;;;;;;;;;;;;8393302;28;28835;-83
2023/02/09 08:09:37;;;;;;;;;;;;;;;;;;8402496;28;27939;-82
2023/02/09 08:13:39;;;;;;;;;;;;;;;;;;8410605;28;27245;-82
2023/02/09 08:17:39;;;;;;;;;;;;;;;;;;8397344;28;28917;-83
2023/02/09 08:21:39;;;;;;;;;;;;;;;;;;8388842;28;28759;-84
2023/02/09 08:25:40;;;;;;;;;;;;;;;;;;8393702;28;30033;-84
2023/02/09 08:29:40;;;;;;;;;;;;;;;;;;8379089;28;28668;-83
2023/02/09 08:33:40;;;;;;;;;;;;;;;;;;8408326;28;27396;-83
2023/02/09 08:37:40;;;;;;;;;;;;;;;;;;8385886;28;28775;-84
2023/02/09 08:41:40;;;;;;;;;;;;;;;;;;8389571;28;28973;-83
2023/02/09 08:45:40;;;;;;;;;;;;;;;;;;8394157;28;28487;-82
2023/02/09 08:49:40;;;;;;;;;;;;;;;;;;8390597;28;28836;-82
2023/02/09 08:53:42;;;;;;;;;;;;;;;;;;8408386;28;28086;-85
2023/02/09 08:57:42;;;;;;;;;;;;;;;;;;8405288;28;27289;-84
2023/02/09 09:01:42;;;;;;;;;;;;;;;;;;8408646;28;27859;-83
2023/02/09 09:05:42;;;;;;;;;;;;;;;;;;8400456;28;28466;-81
2023/02/09 09:09:42;;;;;;;;;;;;;;;;;;8408019;28;28246;-82
2023/02/09 09:13:42;;;;;;;;;;;;;;;;;;8395390;28;28548;-81
2023/02/09 09:17:42;;;;;;;;;;;;;;;;;;8408156;28;27391;-80
2023/02/09 09:21:42;;;;;;;;;;;;;;;;;;8402281;28;27176;-83
2023/02/09 09:25:42;;;;;;;;;;;;;;;;;;8388210;28;28509;-82
2023/02/09 09:29:42;;;;;;;;;;;;;;;;;;8388652;28;28597;-84
2023/02/09 09:33:42;;;;;;;;;;;;;;;;;;8412556;28;27371;-81
2023/02/09 09:37:43;;;;;;;;;;;;;;;;;;8385919;28;29959;-82
2023/02/09 09:41:43;;;;;;;;;;;;;;;;;;8393190;28;28854;-82
2023/02/09 09:45:43;;;;;;;;;;;;;;;;;;8410210;28;27265;-84
2023/02/09 09:49:43;;;;;;;;;;;;;;;;;;8420253;28;27047;-83
2023/02/09 09:53:43;;;;;;;;;;;;;;;;;;8395503;28;28566;-81
2023/02/09 09:57:43;;;;;;;;;;;;;;;;;;8416747;28;27382;-81
2023/02/09 10:01:43;;;;;;;;;;;;;;;;;;8411886;28;27259;-80
2023/02/09 10:05:43;;;;;;;;;;;;;;;;;;8397589;28;29597;-81
2023/02/09 10:09:43;;;;;;;;;;;;;;;;;;8427725;28;27400;-79
2023/02/09 10:13:43;;;;;;;;;;;;;;;;;;8419118;28;28212;-82
2023/02/09 10:17:43;;;;;;;;;;;;;;;;;;8415939;28;28025;-80
2023/02/09 10:21:44;;;;;;;;;;;;;;;;;;8403787;28;28030;-82
2023/02/09 10:25:44;;;;;;;;;;;;;;;;;;8410727;28;27786;-83
2023/02/09 10:29:44;;;;;;;;;;;;;;;;;;8391378;28;28512;-84
2023/02/09 10:33:44;;;;;;;;;;;;;;;;;;8390654;28;28724;-82
2023/02/09 10:37:44;;;;;;;;;;;;;;;;;;8390854;28;27559;-81
2023/02/09 10:41:44;;;;;;;;;;;;;;;;;;8399402;28;27331;-78
2023/02/09 10:45:44;;;;;;;;;;;;;;;;;;8397952;28;27433;-78
2023/02/09 10:49:44;;;;;;;;;;;;;;;;;;8383671;28;29582;-78
2023/02/09 10:53:44;;;;;;;;;;;;;;;;;;8398831;28;27670;-77
2023/02/09 10:57:44;;;;;;;;;;;;;;;;;;8401471;28;27886;-78
2023/02/09 11:01:44;;;;;;;;;;;;;;;;;;8407027;28;27094;-78
2023/02/09 11:05:47;;;;;;;;;;;;;;;;;;8380125;28;28322;-78
2023/02/09 11:09:48;;;;;;;;;;;;;;;;;;8409588;28;28315;-82
2023/02/09 11:13:48;;;;;;;;;;;;;;;;;;8401209;28;27363;-79
2023/02/09 11:17:48;;;;;;;;;;;;;;;;;;8399893;28;27294;-81
2023/02/09 11:21:48;;;;;;;;;;;;;;;;;;8403367;28;27283;-78
2023/02/09 11:25:48;;;;;;;;;;;;;;;;;;8403639;28;27463;-80
2023/02/09 11:29:48;;;;;;;;;;;;;;;;;;8403689;28;27193;-79
2023/02/09 11:33:48;;;;;;;;;;;;;;;;;;8398851;28;28100;-78
2023/02/09 11:37:48;;;;;;;;;;;;;;;;;;8400763;28;27523;-76
2023/02/09 11:46:07;;;;;;;;;;;;;;;;;;8399262;28;27327;-75
2023/02/09 11:50:07;;;;;;;;;;;;;;;;;;8402643;27;27380;-74
2023/02/09 11:54:07;;;;;;;;;;;;;;;;;;8402357;28;27566;-76
2023/02/09 11:58:07;;;;;;;;;;;;;;;;;;8398765;28;27241;-76
2023/02/09 12:02:07;;;;;;;;;;;;;;;;;;8408302;28;27415;-75
2023/02/09 12:06:07;;;;;;;;;;;;;;;;;;8380688;28;28940;-75
2023/02/09 12:10:07;;;;;;;;;;;;;;;;;;8403592;28;27262;-77
2023/02/09 12:14:07;;;;;;;;;;;;;;;;;;8384552;28;28787;-77
2023/02/09 12:18:07;;;;;;;;;;;;;;;;;;8387806;28;28518;-75
2023/02/09 12:22:08;;;;;;;;;;;;;;;;;;8401991;28;27474;-75
2023/02/09 12:26:08;;;;;;;;;;;;;;;;;;8414269;28;27388;-76
2023/02/09 12:30:08;;;;;;;;;;;;;;;;;;8408993;28;27531;-77
2023/02/09 12:34:08;;;;;;;;;;;;;;;;;;8403210;28;27123;-76
2023/02/09 12:38:08;;;;;;;;;;;;;;;;;;8403257;28;27495;-76
2023/02/09 12:42:08;;;;;;;;;;;;;;;;;;8400246;28;27945;-77
2023/02/09 12:46:08;;;;;;;;;;;;;;;;;;8402364;28;27523;-76
2023/02/09 12:50:08;;;;;;;;;;;;;;;;;;8404905;27;27713;-75
2023/02/09 12:54:08;;;;;;;;;;;;;;;;;;8407737;28;27319;-73
2023/02/09 12:58:08;;;;;;;;;;;;;;;;;;8404047;28;27365;-74
2023/02/09 13:02:09;;;;;;;;;;;;;;;;;;8405308;28;27343;-74
2023/02/09 13:06:09;;;;;;;;;;;;;;;;;;8403299;28;28006;-77
2023/02/09 13:10:10;;;;;;;;;;;;;;;;;;8404937;28;27489;-74
2023/02/09 13:14:10;;;;;;;;;;;;;;;;;;8402456;28;27352;-74
2023/02/09 13:18:10;;;;;;;;;;;;;;;;;;8405973;28;27320;-77
2023/02/09 13:22:10;;;;;;;;;;;;;;;;;;8396932;28;27403;-78
2023/02/09 13:26:10;;;;;;;;;;;;;;;;;;8398830;28;27667;-74
2023/02/09 13:30:10;;;;;;;;;;;;;;;;;;8398966;28;28933;-77
2023/02/09 13:34:10;;;;;;;;;;;;;;;;;;8398646;28;27174;-75
2023/02/09 13:38:10;;;;;;;;;;;;;;;;;;8395419;28;27277;-73
2023/02/09 13:42:11;;;;;;;;;;;;;;;;;;8387994;28;27554;-74
2023/02/09 13:46:11;;;;;;;;;;;;;;;;;;8397850;28;28103;-74
2023/02/09 13:50:11;;;;;;;;;;;;;;;;;;8403029;28;27225;-75
2023/02/09 13:54:11;;;;;;;;;;;;;;;;;;8369428;28;28443;-76
2023/02/09 13:58:11;;;;;;;;;;;;;;;;;;8375436;28;28937;-78
2023/02/09 14:02:11;;;;;;;;;;;;;;;;;;8389031;28;28560;-79
2023/02/09 14:06:11;;;;;;;;;;;;;;;;;;8392337;28;28406;-75
2023/02/09 14:10:11;;;;;;;;;;;;;;;;;;8393999;28;27142;-75
2023/02/09 14:14:11;;;;;;;;;;;;;;;;;;8385722;28;28049;-76
2023/02/09 14:18:11;;;;;;;;;;;;;;;;;;8367646;28;28845;-74
2023/02/09 14:22:11;;;;;;;;;;;;;;;;;;8392858;28;28074;-77
2023/02/09 14:26:11;;;;;;;;;;;;;;;;;;8393179;28;27476;-78
2023/02/09 14:30:11;;;;;;;;;;;;;;;;;;8387644;28;27822;-76
2023/02/09 14:34:12;;;;;;;;;;;;;;;;;;8382909;28;27555;-76
2023/02/09 14:38:12;;;;;;;;;;;;;;;;;;8388496;27;27694;-77
2023/02/09 14:42:12;;;;;;;;;;;;;;;;;;8396203;28;27137;-76
2023/02/09 14:46:12;;;;;;;;;;;;;;;;;;8395093;28;27172;-76
2023/02/09 14:50:12;;;;;;;;;;;;;;;;;;8399098;27;27217;-75
2023/02/09 14:54:12;;;;;;;;;;;;;;;;;;8395807;28;27489;-76
2023/02/09 14:58:12;;;;;;;;;;;;;;;;;;8402955;28;27303;-76
2023/02/09 15:02:14;;;;;;;;;;;;;;;;;;8395190;28;27207;-75
2023/02/09 15:06:14;;;;;;;;;;;;;;;;;;8387655;28;29521;-75
2023/02/09 15:10:14;;;;;;;;;;;;;;;;;;8410154;27;27424;-76
2023/02/09 15:14:15;;;;;;;;;;;;;;;;;;8403225;28;27682;-76
2023/02/09 15:18:15;;;;;;;;;;;;;;;;;;8397045;28;27473;-75
2023/02/09 15:22:15;;;;;;;;;;;;;;;;;;8380201;28;28644;-77
2023/02/09 15:26:15;;;;;;;;;;;;;;;;;;8409367;28;27225;-77
2023/02/09 15:30:15;;;;;;;;;;;;;;;;;;8401396;28;27423;-78
2023/02/09 15:34:15;;;;;;;;;;;;;;;;;;8405505;28;27662;-77
2023/02/09 15:38:17;;;;;;;;;;;;;;;;;;8389028;28;27372;-75
2023/02/09 15:50:55;;;;;;;;;;;;;;;;;;8390245;28;27424;-76
2023/02/09 15:54:55;;;;;;;;;;;;;;;;;;8383214;28;29565;-77
2023/02/09 15:59:02;;;;;;;;;;;;;;;;;;8404455;28;27698;-77
2023/02/09 16:03:02;;;;;;;;;;;;;;;;;;8399153;28;27393;-79
2023/02/09 16:07:02;;;;;;;;;;;;;;;;;;8403255;28;27591;-77
2023/02/09 16:11:08;;;;;;;;;;;;;;;;;;8378038;28;29145;-77
2023/02/09 16:15:08;;;;;;;;;;;;;;;;;;8389975;28;29027;-75
2023/02/09 16:19:08;;;;;;;;;;;;;;;;;;8400515;28;28118;-76
2023/02/09 16:23:08;;;;;;;;;;;;;;;;;;8397141;28;28494;-74
2023/02/09 16:27:08;;;;;;;;;;;;;;;;;;8401562;28;27288;-75
2023/02/09 16:31:08;;;;;;;;;;;;;;;;;;8396651;28;27096;-75
2023/02/09 16:35:08;;;;;;;;;;;;;;;;;;8400598;28;27427;-74
2023/02/09 16:39:08;;;;;;;;;;;;;;;;;;8390763;28;27416;-76
2023/02/09 16:43:09;;;;;;;;;;;;;;;;;;8370722;28;28741;-76
2023/02/09 16:47:09;;;;;;;;;;;;;;;;;;8373103;28;28469;-76
2023/02/09 16:51:09;;;;;;;;;;;;;;;;;;8385198;28;27385;-76
2023/02/09 16:55:09;;;;;;;;;;;;;;;;;;8396336;28;27130;-75
2023/02/09 16:59:11;;;;;;;;;;;;;;;;;;8395179;28;47676;-76
2023/02/09 17:03:15;;;;;;;;;;;;;;;;;;8393031;28;27363;-76
2023/02/09 17:07:15;;;;;;;;;;;;;;;;;;8387855;28;27785;-77
2023/02/09 17:11:15;;;;;;;;;;;;;;;;;;8369923;28;29855;-76
2023/02/09 17:15:15;;;;;;;;;;;;;;;;;;8396940;28;27699;-77
2023/02/09 17:19:16;;;;;;;;;;;;;;;;;;8374962;28;28667;-75
2023/02/09 17:23:16;;;;;;;;;;;;;;;;;;8390083;28;28257;-77
2023/02/09 17:27:17;;;;;;;;;;;;;;;;;;8392563;27;28014;-75
2023/02/09 17:31:17;;;;;;;;;;;;;;;;;;8391093;28;27509;-76
2023/02/09 17:35:17;;;;;;;;;;;;;;;;;;8394343;28;27192;-76
2023/02/09 17:39:17;;;;;;;;;;;;;;;;;;8389533;28;27768;-74
2023/02/09 17:43:17;;;;;;;;;;;;;;;;;;8394413;28;28026;-77
2023/02/09 17:47:18;;;;;;;;;;;;;;;;;;8390656;28;27602;-77
2023/02/09 17:51:18;;;;;;;;;;;;;;;;;;8392123;28;27944;-76
2023/02/09 17:55:18;;;;;;;;;;;;;;;;;;8397088;28;27370;-77
2023/02/09 17:59:20;;;;;;;;;;;;;;;;;;8407466;28;27286;-76
2023/02/09 18:03:20;;;;;;;;;;;;;;;;;;8384769;28;28846;-76
2023/02/09 18:07:20;;;;;;;;;;;;;;;;;;8390281;28;27605;-76
2023/02/09 18:11:20;;;;;;;;;;;;;;;;;;8395458;28;27630;-75
2023/02/09 18:15:20;;;;;;;;;;;;;;;;;;8407429;27;27365;-76
2023/02/09 18:19:20;;;;;;;;;;;;;;;;;;8402891;28;27964;-76
2023/02/09 18:23:22;;;;;;;;;;;;;;;;;;8409375;28;27597;-76
2023/02/09 18:27:24;;;;;;;;;;;;;;;;;;8407381;28;27334;-75
2023/02/09 18:31:24;;;;;;;;;;;;;;;;;;8400841;28;27331;-77
2023/02/09 18:35:24;;;;;;;;;;;;;;;;;;8410760;28;27153;-78
2023/02/09 18:39:24;;;;;;;;;;;;;;;;;;8404960;28;27632;-78
2023/02/09 18:43:24;;;;;;;;;;;;;;;;;;8382632;28;28795;-76
2023/02/09 18:47:25;;;;;;;;;;;;;;;;;;8408000;28;27239;-76
2023/02/09 18:51:28;;;;;;;;;;;;;;;;;;8407114;28;27339;-76
2023/02/09 18:55:29;;;;;;;;;;;;;;;;;;8401114;28;27379;-76
2023/02/09 18:59:29;;;;;;;;;;;;;;;;;;8407180;28;27272;-76
2023/02/09 19:03:29;;;;;;;;;;;;;;;;;;8406620;28;27521;-77
2023/02/09 19:07:30;;;;;;;;;;;;;;;;;;8408947;28;27629;-75
2023/02/09 19:11:30;;;;;;;;;;;;;;;;;;8415727;28;27212;-76
2023/02/09 19:15:30;;;;;;;;;;;;;;;;;;8405976;28;27922;-73
2023/02/09 19:19:30;;;;;;;;;;;;;;;;;;8406228;28;27338;-76
2023/02/09 19:23:30;;;;;;;;;;;;;;;;;;8391042;28;29651;-75
2023/02/09 19:27:30;;;;;;;;;;;;;;;;;;8402430;28;27755;-76
2023/02/09 19:31:30;;;;;;;;;;;;;;;;;;8399332;28;27205;-76
2023/02/09 19:35:30;;;;;;;;;;;;;;;;;;8407487;28;27867;-77
2023/02/09 19:39:33;;;;;;;;;;;;;;;;;;8389209;28;28508;-77
2023/02/09 19:43:33;;;;;;;;;;;;;;;;;;8408594;28;27684;-76
2023/02/09 19:47:33;;;;;;;;;;;;;;;;;;8405089;28;27419;-77
2023/02/09 19:51:33;;;;;;;;;;;;;;;;;;8402310;28;28455;-75
2023/02/09 19:55:34;;;;;;;;;;;;;;;;;;8402159;28;27943;-78
2023/02/09 19:59:36;;;;;;;;;;;;;;;;;;8402781;28;27250;-77
2023/02/09 20:03:37;;;;;;;;;;;;;;;;;;8387079;28;28362;-77
2023/02/09 20:07:37;;;;;;;;;;;;;;;;;;8403424;28;28055;-78
2023/02/09 20:11:37;;;;;;;;;;;;;;;;;;8407136;28;27718;-79
2023/02/09 20:15:37;;;;;;;;;;;;;;;;;;8403979;28;27853;-77
2023/02/09 20:19:38;;;;;;;;;;;;;;;;;;8386991;28;28908;-80
2023/02/09 20:23:38;;;;;;;;;;;;;;;;;;8376680;28;28794;-77
2023/02/09 20:27:38;;;;;;;;;;;;;;;;;;8398443;28;28054;-79
2023/02/09 20:31:38;;;;;;;;;;;;;;;;;;8406353;28;27114;-75
2023/02/09 20:35:39;;;;;;;;;;;;;;;;;;8405770;27;27378;-77
2023/02/09 20:39:39;;;;;;;;;;;;;;;;;;8392913;28;27620;-77
2023/02/09 20:47:57;;;;;;;;;;;;;;;;;;8399763;28;27454;-78
2023/02/09 20:51:58;;;;;;;;;;;;;;;;;;8404319;28;27229;-77
2023/02/09 20:55:58;;;;;;;;;;;;;;;;;;8402767;28;27939;-77
2023/02/09 20:59:58;;;;;;;;;;;;;;;;;;8380961;28;28958;-76
2023/02/09 21:03:59;;;;;;;;;;;;;;;;;;8396173;28;27419;-76
2023/02/09 21:08:00;;;;;;;;;;;;;;;;;;8400075;28;27479;-75
2023/02/09 21:12:01;;;;;;;;;;;;;;;;;;8399219;28;27766;-77
2023/02/09 21:16:01;;;;;;;;;;;;;;;;;;8399012;28;27848;-75
2023/02/09 21:20:01;;;;;;;;;;;;;;;;;;8396688;28;27559;-76
2023/02/09 21:24:01;;;;;;;;;;;;;;;;;;8399538;28;27280;-78
2023/02/09 21:28:01;;;;;;;;;;;;;;;;;;8396456;28;28143;-79
2023/02/09 21:32:02;;;;;;;;;;;;;;;;;;8379117;28;28590;-79
2023/02/09 21:36:02;;;;;;;;;;;;;;;;;;8397807;28;27214;-77
2023/02/09 21:40:02;;;;;;;;;;;;;;;;;;8391737;28;28114;-77
2023/02/09 21:44:02;;;;;;;;;;;;;;;;;;8395932;28;27608;-76
2023/02/09 21:48:02;;;;;;;;;;;;;;;;;;8399533;28;27407;-77
2023/02/09 21:52:02;;;;;;;;;;;;;;;;;;8405354;28;28082;-77
2023/02/09 21:56:02;;;;;;;;;;;;;;;;;;8407778;28;28375;-79
2023/02/09 22:00:04;;;;;;;;;;;;;;;;;;8402810;28;27469;-80
2023/02/09 22:04:04;;;;;;;;;;;;;;;;;;8408472;28;27217;-76
2023/02/09 22:08:04;;;;;;;;;;;;;;;;;;8405709;28;27397;-78
2023/02/09 22:12:04;;;;;;;;;;;;;;;;;;8413816;28;27716;-78
2023/02/09 22:16:04;;;;;;;;;;;;;;;;;;8406784;28;27165;-76
2023/02/09 22:20:04;;;;;;;;;;;;;;;;;;8411893;28;27970;-77
2023/02/09 22:24:04;;;;;;;;;;;;;;;;;;8410026;28;27334;-77
2023/02/09 22:28:05;;;;;;;;;;;;;;;;;;8390303;28;28895;-76
2023/02/09 22:32:05;;;;;;;;;;;;;;;;;;8413012;27;27614;-77
2023/02/09 22:36:05;;;;;;;;;;;;;;;;;;8412894;28;27717;-79
2023/02/09 22:40:05;;;;;;;;;;;;;;;;;;8416358;28;27297;-79
2023/02/09 22:44:05;;;;;;;;;;;;;;;;;;8423467;28;27315;-78
2023/02/09 22:48:05;;;;;;;;;;;;;;;;;;8415652;28;27614;-78
2023/02/09 22:52:05;;;;;;;;;;;;;;;;;;8416414;28;27353;-77
2023/02/09 22:56:07;;;;;;;;;;;;;;;;;;8419415;28;27437;-75
2023/02/09 23:00:07;;;;;;;;;;;;;;;;;;8409298;28;27701;-76
2023/02/09 23:04:07;;;;;;;;;;;;;;;;;;8411984;28;27560;-76
2023/02/09 23:08:07;;;;;;;;;;;;;;;;;;8393848;28;28611;-76
2023/02/09 23:12:07;;;;;;;;;;;;;;;;;;8390869;28;28612;-76
2023/02/09 23:16:07;;;;;;;;;;;;;;;;;;8394304;28;30090;-76
2023/02/09 23:20:07;;;;;;;;;;;;;;;;;;8408452;28;27371;-76
2023/02/09 23:24:08;;;;;;;;;;;;;;;;;;8406099;28;27411;-76
2023/02/09 23:28:08;;;;;;;;;;;;;;;;;;8419555;28;27410;-77
2023/02/09 23:32:08;;;;;;;;;;;;;;;;;;8394383;28;28479;-77
2023/02/09 23:36:08;;;;;;;;;;;;;;;;;;8408527;28;27442;-78
2023/02/09 23:40:08;;;;;;;;;;;;;;;;;;8406323;28;27403;-77
2023/02/09 23:44:08;;;;;;;;;;;;;;;;;;8406307;28;27269;-76
2023/02/09 23:48:08;;;;;;;;;;;;;;;;;;8404773;28;27677;-76
2023/02/09 23:52:08;;;;;;;;;;;;;;;;;;8389131;28;28748;-77
2023/02/09 23:56:08;;;;;;;;;;;;;;;;;;8408559;28;27259;-77
